sensor_id;sensor_type;location;lat;lon;timestamp;P1;P2;P0
69123;PMS5003;56232;53.384;-2.732;2024-03-17T00:01:29;33;33;
69123;PMS5003;56232;53.384;-2.732;2024-03-17T00:03:55;28;28;
69123;PMS5003;56232;53.384;-2.732;2024-03-17T00:06:20;37;34;
69123;PMS5003;56232;53.384;-2.732;2024-03-17T00:08:45;25;25;
69123;PMS5003;56232;53.384;-2.732;2024-03-17T00:11:10;32;28;
69123;PMS5003;56232;53.384;-2.732;2024-03-17T00:13:41;34;31;
69123;PMS5003;56232;53.384;-2.732;2024-03-17T00:16:02;33;33;
69123;PMS5003;56232;53.384;-2.732;2024-03-17T00:18:27;42;36;
69123;PMS5003;56232;53.384;-2.732;2024-03-17T00:20:52;35;33;
69123;PMS5003;56232;53.384;-2.732;2024-03-17T00:23:17;30;29;
69123;PMS5003;56232;53.384;-2.732;2024-03-17T00:25:42;24;24;
69123;PMS5003;56232;53.384;-2.732;2024-03-17T00:28:08;25;25;
69123;PMS5003;56232;53.384;-2.732;2024-03-17T00:30:33;31;27;
69123;PMS5003;56232;53.384;-2.732;2024-03-17T00:32:59;26;24;
69123;PMS5003;56232;53.384;-2.732;2024-03-17T00:35:25;26;26;
69123;PMS5003;56232;53.384;-2.732;2024-03-17T00:37:49;26;26;
69123;PMS5003;56232;53.384;-2.732;2024-03-17T00:40:14;29;24;
69123;PMS5003;56232;53.384;-2.732;2024-03-17T00:42:40;26;24;
69123;PMS5003;56232;53.384;-2.732;2024-03-17T00:45:06;24;24;
69123;PMS5003;56232;53.384;-2.732;2024-03-17T00:47:31;30;27;
69123;PMS5003;56232;53.384;-2.732;2024-03-17T00:49:57;27;24;
69123;PMS5003;56232;53.384;-2.732;2024-03-17T00:52:23;24;24;
69123;PMS5003;56232;53.384;-2.732;2024-03-17T00:54:48;32;27;
69123;PMS5003;56232;53.384;-2.732;2024-03-17T00:57:14;31;26;
69123;PMS5003;56232;53.384;-2.732;2024-03-17T00:59:39;31;27;
69123;PMS5003;56232;53.384;-2.732;2024-03-17T01:02:04;25;25;
69123;PMS5003;56232;53.384;-2.732;2024-03-17T01:04:30;24;24;
69123;PMS5003;56232;53.384;-2.732;2024-03-17T01:06:56;23;22;
69123;PMS5003;56232;53.384;-2.732;2024-03-17T01:09:21;29;28;
69123;PMS5003;56232;53.384;-2.732;2024-03-17T01:11:46;30;27;
69123;PMS5003;56232;53.384;-2.732;2024-03-17T01:14:11;27;23;
69123;PMS5003;56232;53.384;-2.732;2024-03-17T01:16:37;28;25;
69123;PMS5003;56232;53.384;-2.732;2024-03-17T01:19:03;24;23;
69123;PMS5003;56232;53.384;-2.732;2024-03-17T01:21:28;26;26;
69123;PMS5003;56232;53.384;-2.732;2024-03-17T01:23:54;28;27;
69123;PMS5003;56232;53.384;-2.732;2024-03-17T01:26:19;32;28;
69123;PMS5003;56232;53.384;-2.732;2024-03-17T01:28:44;33;31;
69123;PMS5003;56232;53.384;-2.732;2024-03-17T01:31:10;33;32;
69123;PMS5003;56232;53.384;-2.732;2024-03-17T01:33:36;34;34;
69123;PMS5003;56232;53.384;-2.732;2024-03-17T01:36:01;41;40;
69123;PMS5003;56232;53.384;-2.732;2024-03-17T01:38:27;34;32;
69123;PMS5003;56232;53.384;-2.732;2024-03-17T01:40:52;33;30;
69123;PMS5003;56232;53.384;-2.732;2024-03-17T01:43:17;42;34;
69123;PMS5003;56232;53.384;-2.732;2024-03-17T01:45:43;39;39;
69123;PMS5003;56232;53.384;-2.732;2024-03-17T01:48:11;49;46;
69123;PMS5003;56232;53.384;-2.732;2024-03-17T01:50:35;47;42;
69123;PMS5003;56232;53.384;-2.732;2024-03-17T01:53:01;41;37;
69123;PMS5003;56232;53.384;-2.732;2024-03-17T01:55:26;47;45;
69123;PMS5003;56232;53.384;-2.732;2024-03-17T01:57:51;43;40;
69123;PMS5003;56232;53.384;-2.732;2024-03-17T02:00:17;46;45;
69123;PMS5003;56232;53.384;-2.732;2024-03-17T02:02:42;38;35;
69123;PMS5003;56232;53.384;-2.732;2024-03-17T02:05:07;41;36;
69123;PMS5003;56232;53.384;-2.732;2024-03-17T02:07:33;42;40;
69123;PMS5003;56232;53.384;-2.732;2024-03-17T02:09:58;44;42;
69123;PMS5003;56232;53.384;-2.732;2024-03-17T02:12:25;51;47;
69123;PMS5003;56232;53.384;-2.732;2024-03-17T02:14:49;48;45;
69123;PMS5003;56232;53.384;-2.732;2024-03-17T02:17:15;50;45;
69123;PMS5003;56232;53.384;-2.732;2024-03-17T02:19:45;38;37;
69123;PMS5003;56232;53.384;-2.732;2024-03-17T02:22:08;29;29;
69123;PMS5003;56232;53.384;-2.732;2024-03-17T02:24:31;23;22;
69123;PMS5003;56232;53.384;-2.732;2024-03-17T02:26:56;25;24;
69123;PMS5003;56232;53.384;-2.732;2024-03-17T02:29:22;18;17;
69123;PMS5003;56232;53.384;-2.732;2024-03-17T02:31:48;25;21;
69123;PMS5003;56232;53.384;-2.732;2024-03-17T02:34:14;23;23;
69123;PMS5003;56232;53.384;-2.732;2024-03-17T02:36:39;20;19;
69123;PMS5003;56232;53.384;-2.732;2024-03-17T02:39:04;21;21;
69123;PMS5003;56232;53.384;-2.732;2024-03-17T02:41:30;22;20;
69123;PMS5003;56232;53.384;-2.732;2024-03-17T02:43:56;21;21;
69123;PMS5003;56232;53.384;-2.732;2024-03-17T02:46:21;22;19;
69123;PMS5003;56232;53.384;-2.732;2024-03-17T02:48:48;18;17;
69123;PMS5003;56232;53.384;-2.732;2024-03-17T02:51:12;23;23;
69123;PMS5003;56232;53.384;-2.732;2024-03-17T02:53:37;24;23;
69123;PMS5003;56232;53.384;-2.732;2024-03-17T02:56:03;24;23;
69123;PMS5003;56232;53.384;-2.732;2024-03-17T02:58:28;33;33;
69123;PMS5003;56232;53.384;-2.732;2024-03-17T03:00:53;30;28;
69123;PMS5003;56232;53.384;-2.732;2024-03-17T03:03:19;36;35;
69123;PMS5003;56232;53.384;-2.732;2024-03-17T03:05:44;42;38;
69123;PMS5003;56232;53.384;-2.732;2024-03-17T03:08:09;39;37;
69123;PMS5003;56232;53.384;-2.732;2024-03-17T03:10:34;36;32;
69123;PMS5003;56232;53.384;-2.732;2024-03-17T03:13:00;39;35;
69123;PMS5003;56232;53.384;-2.732;2024-03-17T03:15:26;38;34;
69123;PMS5003;56232;53.384;-2.732;2024-03-17T03:17:51;46;41;
69123;PMS5003;56232;53.384;-2.732;2024-03-17T03:20:16;36;35;
69123;PMS5003;56232;53.384;-2.732;2024-03-17T03:22:41;32;30;
69123;PMS5003;56232;53.384;-2.732;2024-03-17T03:25:07;31;30;
69123;PMS5003;56232;53.384;-2.732;2024-03-17T03:27:32;21;20;
69123;PMS5003;56232;53.384;-2.732;2024-03-17T03:29:57;24;20;
69123;PMS5003;56232;53.384;-2.732;2024-03-17T03:32:22;21;21;
69123;PMS5003;56232;53.384;-2.732;2024-03-17T03:34:47;21;20;
69123;PMS5003;56232;53.384;-2.732;2024-03-17T03:37:13;21;17;
69123;PMS5003;56232;53.384;-2.732;2024-03-17T03:39:38;17;17;
69123;PMS5003;56232;53.384;-2.732;2024-03-17T03:42:04;26;21;
69123;PMS5003;56232;53.384;-2.732;2024-03-17T03:44:29;22;18;
69123;PMS5003;56232;53.384;-2.732;2024-03-17T03:46:54;15;14;
69123;PMS5003;56232;53.384;-2.732;2024-03-17T03:49:19;16;16;
69123;PMS5003;56232;53.384;-2.732;2024-03-17T03:51:44;17;16;
69123;PMS5003;56232;53.384;-2.732;2024-03-17T03:54:10;16;16;
69123;PMS5003;56232;53.384;-2.732;2024-03-17T03:56:35;17;17;
69123;PMS5003;56232;53.384;-2.732;2024-03-17T03:59:00;19;17;
69123;PMS5003;56232;53.384;-2.732;2024-03-17T04:01:26;17;16;
69123;PMS5003;56232;53.384;-2.732;2024-03-17T04:03:51;14;13;
69123;PMS5003;56232;53.384;-2.732;2024-03-17T04:06:17;14;14;
69123;PMS5003;56232;53.384;-2.732;2024-03-17T04:08:43;13;13;
69123;PMS5003;56232;53.384;-2.732;2024-03-17T04:11:08;14;14;
69123;PMS5003;56232;53.384;-2.732;2024-03-17T04:13:34;15;13;
69123;PMS5003;56232;53.384;-2.732;2024-03-17T04:15:59;20;17;
69123;PMS5003;56232;53.384;-2.732;2024-03-17T04:18:25;13;12;
69123;PMS5003;56232;53.384;-2.732;2024-03-17T04:20:50;20;16;
69123;PMS5003;56232;53.384;-2.732;2024-03-17T04:23:15;11;10;
69123;PMS5003;56232;53.384;-2.732;2024-03-17T04:25:41;12;11;
69123;PMS5003;56232;53.384;-2.732;2024-03-17T04:28:06;16;12;
69123;PMS5003;56232;53.384;-2.732;2024-03-17T04:30:32;13;13;
69123;PMS5003;56232;53.384;-2.732;2024-03-17T04:32:57;9;9;
69123;PMS5003;56232;53.384;-2.732;2024-03-17T04:35:23;11;11;
69123;PMS5003;56232;53.384;-2.732;2024-03-17T04:37:49;9;9;
69123;PMS5003;56232;53.384;-2.732;2024-03-17T04:40:14;8;8;
69123;PMS5003;56232;53.384;-2.732;2024-03-17T04:42:40;10;10;
69123;PMS5003;56232;53.384;-2.732;2024-03-17T04:45:07;11;10;
69123;PMS5003;56232;53.384;-2.732;2024-03-17T04:47:31;12;11;
69123;PMS5003;56232;53.384;-2.732;2024-03-17T04:49:57;14;11;
69123;PMS5003;56232;53.384;-2.732;2024-03-17T04:52:22;10;10;
69123;PMS5003;56232;53.384;-2.732;2024-03-17T04:54:47;8;7;
69123;PMS5003;56232;53.384;-2.732;2024-03-17T04:57:13;11;10;
69123;PMS5003;56232;53.384;-2.732;2024-03-17T04:59:39;22;21;
69123;PMS5003;56232;53.384;-2.732;2024-03-17T05:02:04;30;30;
69123;PMS5003;56232;53.384;-2.732;2024-03-17T05:04:29;37;34;
69123;PMS5003;56232;53.384;-2.732;2024-03-17T05:06:55;28;27;
69123;PMS5003;56232;53.384;-2.732;2024-03-17T05:09:20;25;24;
69123;PMS5003;56232;53.384;-2.732;2024-03-17T05:11:46;25;25;
69123;PMS5003;56232;53.384;-2.732;2024-03-17T05:14:11;25;24;
69123;PMS5003;56232;53.384;-2.732;2024-03-17T05:16:36;18;17;
69123;PMS5003;56232;53.384;-2.732;2024-03-17T05:19:02;25;23;
69123;PMS5003;56232;53.384;-2.732;2024-03-17T05:21:27;21;21;
69123;PMS5003;56232;53.384;-2.732;2024-03-17T05:23:52;22;21;
69123;PMS5003;56232;53.384;-2.732;2024-03-17T05:26:18;21;19;
69123;PMS5003;56232;53.384;-2.732;2024-03-17T05:28:43;13;12;
69123;PMS5003;56232;53.384;-2.732;2024-03-17T05:31:09;13;12;
69123;PMS5003;56232;53.384;-2.732;2024-03-17T05:33:34;11;11;
69123;PMS5003;56232;53.384;-2.732;2024-03-17T05:36:01;12;12;
69123;PMS5003;56232;53.384;-2.732;2024-03-17T05:38:26;10;10;
69123;PMS5003;56232;53.384;-2.732;2024-03-17T05:40:53;11;10;
69123;PMS5003;56232;53.384;-2.732;2024-03-17T05:43:17;13;13;
69123;PMS5003;56232;53.384;-2.732;2024-03-17T05:45:43;18;18;
69123;PMS5003;56232;53.384;-2.732;2024-03-17T05:48:08;29;29;
69123;PMS5003;56232;53.384;-2.732;2024-03-17T05:50:34;30;30;
69123;PMS5003;56232;53.384;-2.732;2024-03-17T05:52:59;29;28;
69123;PMS5003;56232;53.384;-2.732;2024-03-17T05:55:24;23;22;
69123;PMS5003;56232;53.384;-2.732;2024-03-17T05:57:50;15;14;
69123;PMS5003;56232;53.384;-2.732;2024-03-17T06:00:15;18;16;
69123;PMS5003;56232;53.384;-2.732;2024-03-17T06:02:41;14;14;
69123;PMS5003;56232;53.384;-2.732;2024-03-17T06:05:07;13;13;
69123;PMS5003;56232;53.384;-2.732;2024-03-17T06:07:32;14;14;
69123;PMS5003;56232;53.384;-2.732;2024-03-17T06:09:58;16;16;
69123;PMS5003;56232;53.384;-2.732;2024-03-17T06:12:23;18;12;
69123;PMS5003;56232;53.384;-2.732;2024-03-17T06:14:49;20;18;
69123;PMS5003;56232;53.384;-2.732;2024-03-17T06:17:14;17;17;
69123;PMS5003;56232;53.384;-2.732;2024-03-17T06:19:40;16;16;
69123;PMS5003;56232;53.384;-2.732;2024-03-17T06:22:05;13;13;
69123;PMS5003;56232;53.384;-2.732;2024-03-17T06:24:31;9;9;
69123;PMS5003;56232;53.384;-2.732;2024-03-17T06:26:56;10;10;
69123;PMS5003;56232;53.384;-2.732;2024-03-17T06:29:22;11;10;
69123;PMS5003;56232;53.384;-2.732;2024-03-17T06:31:48;11;11;
69123;PMS5003;56232;53.384;-2.732;2024-03-17T06:34:13;9;9;
69123;PMS5003;56232;53.384;-2.732;2024-03-17T06:36:39;10;8;
69123;PMS5003;56232;53.384;-2.732;2024-03-17T06:39:05;9;9;
69123;PMS5003;56232;53.384;-2.732;2024-03-17T06:41:30;8;8;
69123;PMS5003;56232;53.384;-2.732;2024-03-17T06:43:56;10;9;
69123;PMS5003;56232;53.384;-2.732;2024-03-17T06:46:21;6;6;
69123;PMS5003;56232;53.384;-2.732;2024-03-17T06:48:47;6;6;
69123;PMS5003;56232;53.384;-2.732;2024-03-17T06:51:12;6;6;
69123;PMS5003;56232;53.384;-2.732;2024-03-17T06:53:38;6;5;
69123;PMS5003;56232;53.384;-2.732;2024-03-17T06:56:04;4;4;
69123;PMS5003;56232;53.384;-2.732;2024-03-17T06:58:30;6;6;
69123;PMS5003;56232;53.384;-2.732;2024-03-17T07:00:55;3;3;
69123;PMS5003;56232;53.384;-2.732;2024-03-17T07:03:20;10;7;
69123;PMS5003;56232;53.384;-2.732;2024-03-17T07:08:10;5;4;
69123;PMS5003;56232;53.384;-2.732;2024-03-17T07:10:36;5;5;
69123;PMS5003;56232;53.384;-2.732;2024-03-17T07:13:02;4;4;
69123;PMS5003;56232;53.384;-2.732;2024-03-17T07:15:27;6;5;
69123;PMS5003;56232;53.384;-2.732;2024-03-17T07:17:53;4;4;
69123;PMS5003;56232;53.384;-2.732;2024-03-17T07:20:19;4;4;
69123;PMS5003;56232;53.384;-2.732;2024-03-17T07:22:44;4;4;
69123;PMS5003;56232;53.384;-2.732;2024-03-17T07:25:10;4;4;
69123;PMS5003;56232;53.384;-2.732;2024-03-17T07:27:35;3;3;
69123;PMS5003;56232;53.384;-2.732;2024-03-17T07:30:01;5;5;
69123;PMS5003;56232;53.384;-2.732;2024-03-17T07:32:27;3;3;
69123;PMS5003;56232;53.384;-2.732;2024-03-17T07:34:52;4;4;
69123;PMS5003;56232;53.384;-2.732;2024-03-17T07:37:18;4;4;
69123;PMS5003;56232;53.384;-2.732;2024-03-17T07:39:44;3;3;
69123;PMS5003;56232;53.384;-2.732;2024-03-17T07:42:09;3;3;
69123;PMS5003;56232;53.384;-2.732;2024-03-17T07:44:35;1;1;
69123;PMS5003;56232;53.384;-2.732;2024-03-17T07:47:00;2;2;
69123;PMS5003;56232;53.384;-2.732;2024-03-17T07:49:26;1;1;
69123;PMS5003;56232;53.384;-2.732;2024-03-17T07:51:52;4;4;
69123;PMS5003;56232;53.384;-2.732;2024-03-17T07:54:17;2;2;
69123;PMS5003;56232;53.384;-2.732;2024-03-17T07:56:43;4;4;
69123;PMS5003;56232;53.384;-2.732;2024-03-17T07:59:09;2;2;
69123;PMS5003;56232;53.384;-2.732;2024-03-17T08:01:34;2;2;
69123;PMS5003;56232;53.384;-2.732;2024-03-17T08:04:00;3;3;
69123;PMS5003;56232;53.384;-2.732;2024-03-17T08:06:26;3;3;
69123;PMS5003;56232;53.384;-2.732;2024-03-17T08:08:51;2;2;
69123;PMS5003;56232;53.384;-2.732;2024-03-17T08:11:17;2;2;
69123;PMS5003;56232;53.384;-2.732;2024-03-17T08:13:42;2;2;
69123;PMS5003;56232;53.384;-2.732;2024-03-17T08:16:08;2;2;
69123;PMS5003;56232;53.384;-2.732;2024-03-17T08:18:34;3;3;
69123;PMS5003;56232;53.384;-2.732;2024-03-17T08:21:00;3;3;
69123;PMS5003;56232;53.384;-2.732;2024-03-17T08:23:25;2;2;
69123;PMS5003;56232;53.384;-2.732;2024-03-17T08:25:52;3;3;
69123;PMS5003;56232;53.384;-2.732;2024-03-17T08:28:16;4;4;
69123;PMS5003;56232;53.384;-2.732;2024-03-17T08:30:42;2;2;
69123;PMS5003;56232;53.384;-2.732;2024-03-17T08:33:07;1;1;
69123;PMS5003;56232;53.384;-2.732;2024-03-17T08:35:33;2;2;
69123;PMS5003;56232;53.384;-2.732;2024-03-17T08:37:59;2;2;
69123;PMS5003;56232;53.384;-2.732;2024-03-17T08:40:25;0;0;
69123;PMS5003;56232;53.384;-2.732;2024-03-17T08:42:50;2;2;
69123;PMS5003;56232;53.384;-2.732;2024-03-17T08:45:16;2;2;
69123;PMS5003;56232;53.384;-2.732;2024-03-17T08:47:41;2;2;
69123;PMS5003;56232;53.384;-2.732;2024-03-17T08:50:08;2;2;
69123;PMS5003;56232;53.384;-2.732;2024-03-17T08:52:33;2;2;
69123;PMS5003;56232;53.384;-2.732;2024-03-17T08:54:58;2;2;
69123;PMS5003;56232;53.384;-2.732;2024-03-17T08:57:24;1;1;
69123;PMS5003;56232;53.384;-2.732;2024-03-17T08:59:49;1;1;
69123;PMS5003;56232;53.384;-2.732;2024-03-17T09:02:15;1;1;
69123;PMS5003;56232;53.384;-2.732;2024-03-17T09:04:41;1;1;
69123;PMS5003;56232;53.384;-2.732;2024-03-17T09:07:06;2;2;
69123;PMS5003;56232;53.384;-2.732;2024-03-17T09:09:32;2;2;
69123;PMS5003;56232;53.384;-2.732;2024-03-17T09:11:57;1;1;
69123;PMS5003;56232;53.384;-2.732;2024-03-17T09:14:23;2;2;
69123;PMS5003;56232;53.384;-2.732;2024-03-17T09:16:49;0;0;
69123;PMS5003;56232;53.384;-2.732;2024-03-17T09:19:14;1;1;
69123;PMS5003;56232;53.384;-2.732;2024-03-17T09:21:40;1;1;
69123;PMS5003;56232;53.384;-2.732;2024-03-17T09:24:06;2;1;
69123;PMS5003;56232;53.384;-2.732;2024-03-17T09:26:31;2;2;
69123;PMS5003;56232;53.384;-2.732;2024-03-17T09:28:57;1;1;
69123;PMS5003;56232;53.384;-2.732;2024-03-17T09:31:22;1;1;
69123;PMS5003;56232;53.384;-2.732;2024-03-17T09:33:48;2;1;
69123;PMS5003;56232;53.384;-2.732;2024-03-17T09:36:13;0;0;
69123;PMS5003;56232;53.384;-2.732;2024-03-17T09:38:39;0;0;
69123;PMS5003;56232;53.384;-2.732;2024-03-17T09:41:06;1;1;
69123;PMS5003;56232;53.384;-2.732;2024-03-17T09:43:32;1;1;
69123;PMS5003;56232;53.384;-2.732;2024-03-17T09:45:56;1;0;
69123;PMS5003;56232;53.384;-2.732;2024-03-17T09:48:21;1;1;
69123;PMS5003;56232;53.384;-2.732;2024-03-17T09:50:49;1;1;
69123;PMS5003;56232;53.384;-2.732;2024-03-17T09:53:13;1;1;
69123;PMS5003;56232;53.384;-2.732;2024-03-17T09:55:38;1;1;
69123;PMS5003;56232;53.384;-2.732;2024-03-17T09:58:04;0;0;
69123;PMS5003;56232;53.384;-2.732;2024-03-17T10:00:29;0;0;
69123;PMS5003;56232;53.384;-2.732;2024-03-17T10:02:55;0;0;
69123;PMS5003;56232;53.384;-2.732;2024-03-17T10:05:21;0;0;
69123;PMS5003;56232;53.384;-2.732;2024-03-17T10:07:46;0;0;
69123;PMS5003;56232;53.384;-2.732;2024-03-17T10:10:12;0;0;
69123;PMS5003;56232;53.384;-2.732;2024-03-17T10:12:37;0;0;
69123;PMS5003;56232;53.384;-2.732;2024-03-17T10:15:03;1;1;
69123;PMS5003;56232;53.384;-2.732;2024-03-17T10:17:29;0;0;
69123;PMS5003;56232;53.384;-2.732;2024-03-17T10:19:57;0;0;
69123;PMS5003;56232;53.384;-2.732;2024-03-17T10:22:20;1;1;
69123;PMS5003;56232;53.384;-2.732;2024-03-17T10:24:45;0;0;
69123;PMS5003;56232;53.384;-2.732;2024-03-17T10:27:11;1;0;
69123;PMS5003;56232;53.384;-2.732;2024-03-17T10:29:36;0;0;
69123;PMS5003;56232;53.384;-2.732;2024-03-17T10:32:03;0;0;
69123;PMS5003;56232;53.384;-2.732;2024-03-17T10:34:28;0;0;
69123;PMS5003;56232;53.384;-2.732;2024-03-17T10:36:59;0;0;
69123;PMS5003;56232;53.384;-2.732;2024-03-17T10:39:23;0;0;
69123;PMS5003;56232;53.384;-2.732;2024-03-17T10:41:44;1;1;
69123;PMS5003;56232;53.384;-2.732;2024-03-17T10:44:10;0;0;
69123;PMS5003;56232;53.384;-2.732;2024-03-17T10:46:35;0;0;
69123;PMS5003;56232;53.384;-2.732;2024-03-17T10:49:01;1;0;
69123;PMS5003;56232;53.384;-2.732;2024-03-17T10:51:27;0;0;
69123;PMS5003;56232;53.384;-2.732;2024-03-17T10:53:52;0;0;
69123;PMS5003;56232;53.384;-2.732;2024-03-17T10:56:18;0;0;
69123;PMS5003;56232;53.384;-2.732;2024-03-17T10:58:44;0;0;
69123;PMS5003;56232;53.384;-2.732;2024-03-17T11:01:14;0;0;
69123;PMS5003;56232;53.384;-2.732;2024-03-17T11:03:34;0;0;
69123;PMS5003;56232;53.384;-2.732;2024-03-17T11:06:00;0;0;
69123;PMS5003;56232;53.384;-2.732;2024-03-17T11:08:25;0;0;
69123;PMS5003;56232;53.384;-2.732;2024-03-17T11:10:52;1;1;
69123;PMS5003;56232;53.384;-2.732;2024-03-17T11:15:42;1;0;
69123;PMS5003;56232;53.384;-2.732;2024-03-17T11:20:33;2;2;
69123;PMS5003;56232;53.384;-2.732;2024-03-17T11:22:59;0;0;
69123;PMS5003;56232;53.384;-2.732;2024-03-17T11:27:50;0;0;
69123;PMS5003;56232;53.384;-2.732;2024-03-17T11:32:41;1;1;
69123;PMS5003;56232;53.384;-2.732;2024-03-17T11:35:12;0;0;
69123;PMS5003;56232;53.384;-2.732;2024-03-17T11:39:57;0;0;
69123;PMS5003;56232;53.384;-2.732;2024-03-17T11:42:24;0;0;
69123;PMS5003;56232;53.384;-2.732;2024-03-17T11:47:14;0;0;
69123;PMS5003;56232;53.384;-2.732;2024-03-17T11:49:40;0;0;
69123;PMS5003;56232;53.384;-2.732;2024-03-17T11:52:10;4;3;
69123;PMS5003;56232;53.384;-2.732;2024-03-17T11:54:31;3;3;
69123;PMS5003;56232;53.384;-2.732;2024-03-17T11:57:01;2;2;
69123;PMS5003;56232;53.384;-2.732;2024-03-17T11:59:22;1;1;
69123;PMS5003;56232;53.384;-2.732;2024-03-17T12:01:48;2;2;
69123;PMS5003;56232;53.384;-2.732;2024-03-17T12:04:13;0;0;
69123;PMS5003;56232;53.384;-2.732;2024-03-17T12:06:38;1;1;
69123;PMS5003;56232;53.384;-2.732;2024-03-17T12:09:08;1;1;
69123;PMS5003;56232;53.384;-2.732;2024-03-17T12:11:29;0;0;
69123;PMS5003;56232;53.384;-2.732;2024-03-17T12:13:55;0;0;
69123;PMS5003;56232;53.384;-2.732;2024-03-17T12:16:20;0;0;
69123;PMS5003;56232;53.384;-2.732;2024-03-17T12:18:46;1;1;
69123;PMS5003;56232;53.384;-2.732;2024-03-17T12:21:12;4;4;
69123;PMS5003;56232;53.384;-2.732;2024-03-17T12:23:37;1;1;
69123;PMS5003;56232;53.384;-2.732;2024-03-17T12:26:03;1;1;
69123;PMS5003;56232;53.384;-2.732;2024-03-17T12:28:28;1;1;
69123;PMS5003;56232;53.384;-2.732;2024-03-17T12:30:54;1;0;
69123;PMS5003;56232;53.384;-2.732;2024-03-17T12:33:19;2;2;
69123;PMS5003;56232;53.384;-2.732;2024-03-17T12:35:45;3;3;
69123;PMS5003;56232;53.384;-2.732;2024-03-17T12:40:36;2;2;
69123;PMS5003;56232;53.384;-2.732;2024-03-17T12:43:01;0;0;
69123;PMS5003;56232;53.384;-2.732;2024-03-17T12:45:27;1;1;
69123;PMS5003;56232;53.384;-2.732;2024-03-17T12:47:52;1;1;
69123;PMS5003;56232;53.384;-2.732;2024-03-17T12:50:18;0;0;
69123;PMS5003;56232;53.384;-2.732;2024-03-17T12:55:09;0;0;
69123;PMS5003;56232;53.384;-2.732;2024-03-17T12:57:35;3;3;
69123;PMS5003;56232;53.384;-2.732;2024-03-17T13:00:00;0;0;
69123;PMS5003;56232;53.384;-2.732;2024-03-17T13:02:26;0;0;
69123;PMS5003;56232;53.384;-2.732;2024-03-17T13:07:17;1;1;
69123;PMS5003;56232;53.384;-2.732;2024-03-17T13:09:42;1;1;
69123;PMS5003;56232;53.384;-2.732;2024-03-17T13:12:12;1;1;
69123;PMS5003;56232;53.384;-2.732;2024-03-17T13:14:33;0;0;
69123;PMS5003;56232;53.384;-2.732;2024-03-17T13:16:59;0;0;
69123;PMS5003;56232;53.384;-2.732;2024-03-17T13:19:24;1;1;
69123;PMS5003;56232;53.384;-2.732;2024-03-17T13:21:50;0;0;
69123;PMS5003;56232;53.384;-2.732;2024-03-17T13:24:15;0;0;
69123;PMS5003;56232;53.384;-2.732;2024-03-17T13:26:41;0;0;
69123;PMS5003;56232;53.384;-2.732;2024-03-17T13:29:06;0;0;
69123;PMS5003;56232;53.384;-2.732;2024-03-17T13:31:32;1;1;
69123;PMS5003;56232;53.384;-2.732;2024-03-17T13:33:57;0;0;
69123;PMS5003;56232;53.384;-2.732;2024-03-17T13:36:23;1;1;
69123;PMS5003;56232;53.384;-2.732;2024-03-17T13:38:52;0;0;
69123;PMS5003;56232;53.384;-2.732;2024-03-17T13:41:14;1;1;
69123;PMS5003;56232;53.384;-2.732;2024-03-17T13:43:40;0;0;
69123;PMS5003;56232;53.384;-2.732;2024-03-17T13:46:05;2;2;
69123;PMS5003;56232;53.384;-2.732;2024-03-17T13:48:31;1;1;
69123;PMS5003;56232;53.384;-2.732;2024-03-17T13:50:56;0;0;
69123;PMS5003;56232;53.384;-2.732;2024-03-17T13:53:22;1;1;
69123;PMS5003;56232;53.384;-2.732;2024-03-17T13:55:47;2;1;
69123;PMS5003;56232;53.384;-2.732;2024-03-17T13:58:13;1;0;
69123;PMS5003;56232;53.384;-2.732;2024-03-17T14:00:38;0;0;
69123;PMS5003;56232;53.384;-2.732;2024-03-17T14:03:04;1;1;
69123;PMS5003;56232;53.384;-2.732;2024-03-17T14:05:30;0;0;
69123;PMS5003;56232;53.384;-2.732;2024-03-17T14:07:55;1;1;
69123;PMS5003;56232;53.384;-2.732;2024-03-17T14:10:21;0;0;
69123;PMS5003;56232;53.384;-2.732;2024-03-17T14:12:46;1;1;
69123;PMS5003;56232;53.384;-2.732;2024-03-17T14:15:12;1;1;
69123;PMS5003;56232;53.384;-2.732;2024-03-17T14:17:37;4;3;
69123;PMS5003;56232;53.384;-2.732;2024-03-17T14:20:03;2;1;
69123;PMS5003;56232;53.384;-2.732;2024-03-17T14:22:28;1;0;
69123;PMS5003;56232;53.384;-2.732;2024-03-17T14:24:54;5;2;
69123;PMS5003;56232;53.384;-2.732;2024-03-17T14:27:19;1;0;
69123;PMS5003;56232;53.384;-2.732;2024-03-17T14:29:45;2;1;
69123;PMS5003;56232;53.384;-2.732;2024-03-17T14:32:10;1;1;
69123;PMS5003;56232;53.384;-2.732;2024-03-17T14:34:36;0;0;
69123;PMS5003;56232;53.384;-2.732;2024-03-17T14:37:01;0;0;
69123;PMS5003;56232;53.384;-2.732;2024-03-17T14:39:27;3;2;
69123;PMS5003;56232;53.384;-2.732;2024-03-17T14:41:52;1;1;
69123;PMS5003;56232;53.384;-2.732;2024-03-17T14:44:23;1;1;
69123;PMS5003;56232;53.384;-2.732;2024-03-17T14:46:43;0;0;
69123;PMS5003;56232;53.384;-2.732;2024-03-17T14:49:09;2;1;
69123;PMS5003;56232;53.384;-2.732;2024-03-17T14:51:35;1;1;
69123;PMS5003;56232;53.384;-2.732;2024-03-17T14:54:00;0;0;
69123;PMS5003;56232;53.384;-2.732;2024-03-17T14:56:26;1;1;
69123;PMS5003;56232;53.384;-2.732;2024-03-17T14:58:51;0;0;
69123;PMS5003;56232;53.384;-2.732;2024-03-17T15:01:17;1;1;
69123;PMS5003;56232;53.384;-2.732;2024-03-17T15:03:42;2;1;
69123;PMS5003;56232;53.384;-2.732;2024-03-17T15:06:09;1;1;
69123;PMS5003;56232;53.384;-2.732;2024-03-17T15:08:33;1;0;
69123;PMS5003;56232;53.384;-2.732;2024-03-17T15:10:59;0;0;
69123;PMS5003;56232;53.384;-2.732;2024-03-17T15:13:24;0;0;
69123;PMS5003;56232;53.384;-2.732;2024-03-17T15:15:50;0;0;
69123;PMS5003;56232;53.384;-2.732;2024-03-17T15:18:16;0;0;
69123;PMS5003;56232;53.384;-2.732;2024-03-17T15:20:41;1;1;
69123;PMS5003;56232;53.384;-2.732;2024-03-17T15:23:07;0;0;
69123;PMS5003;56232;53.384;-2.732;2024-03-17T15:25:32;1;1;
69123;PMS5003;56232;53.384;-2.732;2024-03-17T15:27:58;0;0;
69123;PMS5003;56232;53.384;-2.732;2024-03-17T15:30:23;1;0;
69123;PMS5003;56232;53.384;-2.732;2024-03-17T15:32:49;0;0;
69123;PMS5003;56232;53.384;-2.732;2024-03-17T15:35:14;0;0;
69123;PMS5003;56232;53.384;-2.732;2024-03-17T15:37:40;1;0;
69123;PMS5003;56232;53.384;-2.732;2024-03-17T15:40:06;1;1;
69123;PMS5003;56232;53.384;-2.732;2024-03-17T15:42:31;0;0;
69123;PMS5003;56232;53.384;-2.732;2024-03-17T15:44:56;0;0;
69123;PMS5003;56232;53.384;-2.732;2024-03-17T15:47:22;0;0;
69123;PMS5003;56232;53.384;-2.732;2024-03-17T15:49:48;1;0;
69123;PMS5003;56232;53.384;-2.732;2024-03-17T15:52:13;3;1;
69123;PMS5003;56232;53.384;-2.732;2024-03-17T15:54:39;0;0;
69123;PMS5003;56232;53.384;-2.732;2024-03-17T15:57:04;0;0;
69123;PMS5003;56232;53.384;-2.732;2024-03-17T15:59:30;0;0;
69123;PMS5003;56232;53.384;-2.732;2024-03-17T16:01:55;0;0;
69123;PMS5003;56232;53.384;-2.732;2024-03-17T16:04:22;0;0;
69123;PMS5003;56232;53.384;-2.732;2024-03-17T16:06:47;1;0;
69123;PMS5003;56232;53.384;-2.732;2024-03-17T16:09:12;0;0;
69123;PMS5003;56232;53.384;-2.732;2024-03-17T16:11:38;0;0;
69123;PMS5003;56232;53.384;-2.732;2024-03-17T16:14:03;0;0;
69123;PMS5003;56232;53.384;-2.732;2024-03-17T16:16:29;2;2;
69123;PMS5003;56232;53.384;-2.732;2024-03-17T16:18:54;0;0;
69123;PMS5003;56232;53.384;-2.732;2024-03-17T16:21:21;1;1;
69123;PMS5003;56232;53.384;-2.732;2024-03-17T16:23:47;1;1;
69123;PMS5003;56232;53.384;-2.732;2024-03-17T16:26:11;1;0;
69123;PMS5003;56232;53.384;-2.732;2024-03-17T16:28:37;1;1;
69123;PMS5003;56232;53.384;-2.732;2024-03-17T16:31:03;0;0;
69123;PMS5003;56232;53.384;-2.732;2024-03-17T16:33:29;2;1;